createdAt,value
2023-04-06T00:03:37.405Z,58.30
2023-04-06T00:23:42.010Z,59.00
2023-04-06T00:33:43.648Z,58.90
2023-04-06T00:53:47.600Z,59.50
2023-04-06T01:03:51.109Z,59.70
2023-04-06T01:13:53.516Z,59.70
2023-04-06T01:23:55.242Z,60.20
2023-04-06T01:33:57.029Z,60.60
2023-04-06T01:43:58.718Z,61.00
2023-04-06T01:54:00.351Z,61.50
2023-04-06T02:04:01.969Z,64.00
2023-04-06T02:14:03.580Z,62.00
2023-04-06T02:24:05.661Z,62.20
2023-04-06T02:34:08.200Z,62.30
2023-04-06T02:44:10.726Z,62.50
2023-04-06T02:54:12.494Z,62.70
2023-04-06T03:04:14.133Z,63.30
2023-04-06T03:14:18.261Z,63.30
2023-04-06T03:24:20.013Z,63.30
2023-04-06T03:34:21.628Z,64.00
2023-04-06T03:44:23.229Z,64.10
2023-04-06T04:15:21.877Z,64.60
2023-04-06T04:25:24.413Z,65.00
2023-04-06T04:35:26.360Z,65.60
2023-04-06T04:45:28.028Z,65.80
2023-04-06T04:55:30.294Z,65.80
2023-04-06T05:15:39.289Z,66.60
2023-04-06T05:25:41.707Z,67.00
2023-04-06T05:35:43.513Z,67.10
2023-04-06T05:45:46.537Z,67.30
2023-04-06T05:55:48.594Z,67.50
2023-04-06T06:05:50.192Z,67.40
2023-04-06T06:15:51.872Z,67.60
2023-04-06T06:25:53.541Z,67.50
2023-04-06T06:35:55.463Z,67.20
2023-04-06T06:45:57.140Z,67.00
2023-04-06T06:55:58.830Z,66.70
2023-04-06T07:06:00.675Z,66.20
2023-04-06T07:16:02.409Z,65.70
2023-04-06T07:36:06.286Z,64.00
2023-04-06T07:46:08.084Z,62.60
2023-04-06T07:56:09.923Z,61.40
2023-04-06T08:06:11.569Z,60.50
2023-04-06T08:16:13.362Z,59.80
2023-04-06T08:26:15.024Z,59.10
2023-04-06T08:36:17.806Z,58.40
2023-04-06T08:46:19.870Z,57.80
2023-04-06T16:50:04.925Z,29.90
2023-04-06T17:00:09.112Z,30.30
2023-04-06T17:10:10.962Z,30.80
2023-04-06T17:20:12.884Z,31.30
2023-04-06T17:30:16.876Z,31.70
2023-04-06T17:40:19.722Z,32.20
2023-04-06T17:50:21.356Z,32.70
2023-04-06T18:00:24.868Z,33.10
2023-04-06T18:10:26.572Z,33.60
2023-04-06T18:20:28.249Z,33.90
2023-04-06T18:30:29.896Z,34.20
2023-04-06T18:40:39.216Z,34.70
2023-04-06T18:50:41.070Z,34.70
2023-04-06T19:00:42.962Z,34.60
2023-04-06T19:10:44.670Z,35.90
2023-04-06T19:20:46.330Z,34.20
2023-04-06T19:30:47.980Z,34.80
2023-04-06T19:40:49.646Z,35.00
2023-04-06T19:50:55.556Z,35.40
2023-04-06T20:00:57.275Z,36.30
2023-04-06T20:11:03.738Z,36.90
2023-04-06T20:21:05.444Z,37.10
2023-04-06T20:31:07.680Z,36.90
2023-04-06T20:41:10.520Z,37.20
2023-04-06T20:51:20.489Z,37.70
2023-04-06T21:01:22.427Z,39.30
2023-04-06T21:11:24.200Z,40.70
2023-04-06T21:21:25.873Z,41.10
2023-04-06T21:31:27.607Z,41.10
2023-04-06T21:41:29.679Z,41.40
2023-04-06T21:58:21.379Z,42.40
2023-04-06T22:08:33.886Z,43.80
2023-04-06T22:18:38.707Z,46.00
2023-04-06T22:28:40.937Z,47.60
2023-04-06T22:38:44.327Z,48.50
2023-04-06T22:48:45.961Z,49.50
2023-04-06T22:58:47.643Z,50.80
2023-04-06T23:08:49.343Z,51.50
2023-04-06T23:18:50.964Z,52.00
2023-04-06T23:28:52.586Z,52.60
2023-04-06T23:38:56.318Z,53.30
